Time;durP1;ratioP1;P1;durP2;ratioP2;P2;SDS_P1;SDS_P2;PMS_P1;PMS_P2;Temp;Humidity;BMP_temperature;BMP_pressure;BME280_temperature;BME280_humidity;BME280_pressure;Samples;Min_cycle;Max_cycle;Signal;HPM_P1;HPM_P2
2023/12/01 00:02:21;;;;;;;78.95;25.00;;;0.60;99.90;;;;;;5074056;28;20087;-63
2023/12/01 00:04:47;;;;;;;72.82;24.65;;;0.60;99.90;;;;;;5073230;28;20344;-63
2023/12/01 00:07:13;;;;;;;77.15;25.20;;;0.60;99.90;;;;;;5072478;28;20031;-63
2023/12/01 00:09:38;;;;;;;89.10;27.52;;;1.00;99.90;;;;;;5073864;28;20488;-63
2023/12/01 00:12:04;;;;;;;75.63;27.05;;;0.60;99.90;;;;;;5073306;28;20020;-64
2023/12/01 00:14:30;;;;;;;76.07;25.95;;;0.60;99.90;;;;;;5072910;28;20075;-62
2023/12/01 00:16:56;;;;;;;84.25;27.30;;;0.60;99.90;;;;;;5072454;28;20360;-63
2023/12/01 00:19:21;;;;;;;78.43;26.38;;;0.60;99.90;;;;;;5073849;28;20108;-63
2023/12/01 00:21:47;;;;;;;82.25;27.52;;;0.70;99.90;;;;;;5072203;28;20085;-63
2023/12/01 00:24:12;;;;;;;71.03;24.48;;;0.90;99.90;;;;;;5072142;28;20024;-64
2023/12/01 00:26:39;;;;;;;81.25;26.10;;;0.70;99.90;;;;;;5073484;28;20029;-63
2023/12/01 00:29:05;;;;;;;71.80;25.10;;;1.80;99.90;;;;;;5072545;28;20448;-63
2023/12/01 00:31:30;;;;;;;74.13;25.27;;;0.70;99.90;;;;;;5072164;28;20032;-63
2023/12/01 00:33:56;;;;;;;73.78;25.45;;;0.80;99.90;;;;;;5073563;28;20080;-63
2023/12/01 00:36:22;;;;;;;67.38;24.52;;;0.80;99.90;;;;;;5073811;28;20531;-63
2023/12/01 00:38:47;;;;;;;68.45;24.60;;;0.80;99.90;;;;;;5061362;28;20041;-64
2023/12/01 00:41:14;;;;;;;72.55;25.20;;;0.80;99.90;;;;;;5035634;28;20021;-63
2023/12/01 00:43:39;;;;;;;72.65;25.50;;;0.80;99.90;;;;;;5053672;28;20112;-63
2023/12/01 00:46:05;;;;;;;71.88;25.70;;;0.80;99.90;;;;;;5052985;28;20100;-63
2023/12/01 00:48:31;;;;;;;75.47;24.98;;;0.80;99.90;;;;;;5053345;28;20427;-63
2023/12/01 00:50:57;;;;;;;65.93;23.63;;;2.30;99.90;;;;;;5055974;28;20025;-63
2023/12/01 00:53:22;;;;;;;67.82;25.10;;;0.80;99.90;;;;;;5057010;28;20032;-63
2023/12/01 00:55:48;;;;;;;72.00;24.08;;;0.80;99.90;;;;;;5056694;28;20033;-63
2023/12/01 00:58:14;;;;;;;67.25;23.17;;;0.80;99.90;;;;;;5039769;28;20028;-64
2023/12/01 01:00:40;;;;;;;70.03;25.63;;;0.80;99.90;;;;;;5040696;28;20366;-63
2023/12/01 01:03:06;;;;;;;67.05;24.50;;;0.80;99.90;;;;;;5058361;28;20024;-63
2023/12/01 01:05:32;;;;;;;67.32;25.08;;;0.90;99.90;;;;;;5057796;28;20028;-63
2023/12/01 01:07:58;;;;;;;63.55;24.67;;;0.90;99.90;;;;;;5039517;28;20029;-63
2023/12/01 01:10:24;;;;;;;72.07;25.55;;;0.90;99.90;;;;;;5056995;28;20028;-63
2023/12/01 01:12:50;;;;;;;58.95;22.58;;;0.90;99.90;;;;;;5056680;28;20357;-63
2023/12/01 01:15:15;;;;;;;64.32;23.88;;;1.70;99.90;;;;;;5056327;28;20039;-63
2023/12/01 01:17:41;;;;;;;63.05;24.75;;;1.00;99.90;;;;;;5038566;28;20028;-63
2023/12/01 01:20:07;;;;;;;67.15;24.80;;;1.00;99.90;;;;;;5038333;28;20025;-63
2023/12/01 01:22:33;;;;;;;63.05;23.50;;;1.00;99.90;;;;;;5038504;28;20040;-63
2023/12/01 01:24:59;;;;;;;66.25;23.17;;;1.10;99.90;;;;;;5056294;28;20453;-63
2023/12/01 01:27:24;;;;;;;68.00;23.92;;;1.10;99.90;;;;;;5056033;28;20017;-63
2023/12/01 01:29:50;;;;;;;62.53;24.27;;;1.00;99.90;;;;;;5038368;28;20047;-63
2023/12/01 01:32:15;;;;;;;70.38;25.13;;;1.00;99.90;;;;;;5038337;28;20021;-63
2023/12/01 01:34:41;;;;;;;67.35;24.63;;;1.40;99.90;;;;;;5055894;28;20029;-64
2023/12/01 01:37:07;;;;;;;70.25;25.40;;;1.30;99.90;;;;;;5038714;28;20049;-64
2023/12/01 01:39:34;;;;;;;62.30;23.63;;;0.90;99.90;;;;;;5057733;28;20571;-63
2023/12/01 01:42:00;;;;;;;64.47;25.02;;;0.90;99.90;;;;;;5040845;28;20021;-63
2023/12/01 01:44:26;;;;;;;63.78;24.55;;;0.90;99.90;;;;;;5059431;28;20036;-68
2023/12/01 01:46:52;;;;;;;63.20;23.85;;;0.90;99.90;;;;;;5040365;28;20036;-63
2023/12/01 01:49:23;;;;;;;63.97;22.30;;;0.90;99.90;;;;;;5056131;28;20021;-63
2023/12/01 01:51:49;;;;;;;55.83;23.23;;;0.90;99.90;;;;;;5055999;28;20367;-63
2023/12/01 01:54:16;;;;;;;60.28;22.48;;;0.80;99.90;;;;;;5037974;28;20345;-63
2023/12/01 01:56:42;;;;;;;63.05;22.67;;;0.80;99.90;;;;;;5056054;28;20035;-63
2023/12/01 01:59:08;;;;;;;56.80;23.23;;;1.10;99.90;;;;;;5056035;28;20029;-63
2023/12/01 02:01:39;;;;;;;63.40;23.48;;;0.90;99.90;;;;;;5037431;28;20024;-63
2023/12/01 02:04:07;;;;;;;63.15;23.52;;;0.80;99.90;;;;;;5055950;28;20021;-63
2023/12/01 02:06:33;;;;;;;61.63;22.87;;;2.70;99.90;;;;;;5055582;28;20024;-64
2023/12/01 02:08:59;;;;;;;64.13;23.67;;;0.90;99.90;;;;;;5037601;28;20349;-63
2023/12/01 02:11:25;;;;;;;60.97;23.95;;;0.80;99.90;;;;;;5055802;28;20017;-63
2023/12/01 02:13:52;;;;;;;58.70;22.83;;;0.80;99.90;;;;;;5055477;28;20437;-63
2023/12/01 02:16:18;;;;;;;57.92;23.63;;;0.80;99.90;;;;;;5055501;28;20021;-63
2023/12/01 02:18:44;;;;;;;63.60;23.10;;;0.80;99.90;;;;;;5055104;28;20104;-63
2023/12/01 02:21:09;;;;;;;66.10;22.58;;;0.80;99.90;;;;;;5055371;28;20104;-63
2023/12/01 02:23:35;;;;;;;63.58;23.50;;;0.80;99.90;;;;;;5055235;28;20021;-63
2023/12/01 02:26:01;;;;;;;68.20;23.17;;;0.90;99.90;;;;;;5055249;28;20356;-63
2023/12/01 02:28:26;;;;;;;67.97;24.08;;;0.90;99.90;;;;;;5037325;28;20029;-63
2023/12/01 02:30:54;;;;;;;62.20;23.10;;;0.90;99.90;;;;;;5037543;28;20028;-63
2023/12/01 02:33:20;;;;;;;60.78;23.40;;;0.90;99.90;;;;;;5055052;28;20334;-63
2023/12/01 02:35:49;;;;;;;62.83;23.05;;;1.50;99.90;;;;;;5055102;28;20029;-63
2023/12/01 02:38:16;;;;;;;58.03;21.77;;;0.90;99.90;;;;;;5055119;28;20044;-63
2023/12/01 02:40:49;;;;;;;58.47;21.75;;;0.90;99.90;;;;;;5054917;28;20411;-63
2023/12/01 02:43:15;;;;;;;57.95;20.50;;;0.90;99.90;;;;;;5037273;28;20021;-63
2023/12/01 02:45:41;;;;;;;54.60;21.98;;;0.90;99.90;;;;;;5036904;28;20445;-63
2023/12/01 02:48:07;;;;;;;52.80;19.67;;;0.90;99.90;;;;;;5054480;28;20017;-63
2023/12/01 02:50:33;;;;;;;58.33;22.40;;;0.80;99.90;;;;;;5036845;28;20024;-63
2023/12/01 02:52:59;;;;;;;52.55;21.08;;;0.90;99.90;;;;;;5054810;28;20025;-63
2023/12/01 02:55:25;;;;;;;57.17;22.23;;;1.40;99.90;;;;;;5054599;28;20029;-63
2023/12/01 02:57:51;;;;;;;58.88;23.45;;;0.80;99.90;;;;;;5036739;28;20360;-63
2023/12/01 03:00:17;;;;;;;61.35;22.65;;;0.90;99.90;;;;;;5036679;28;20021;-63
2023/12/01 03:02:44;;;;;;;64.40;21.85;;;0.90;99.90;;;;;;5054487;28;20029;-63
2023/12/01 03:05:10;;;;;;;56.00;21.92;;;0.90;99.90;;;;;;5054477;28;20032;-63
2023/12/01 03:07:37;;;;;;;59.22;22.63;;;1.00;99.90;;;;;;5054170;28;20457;-63
2023/12/01 03:10:04;;;;;;;61.53;22.80;;;1.00;99.90;;;;;;5054774;28;20036;-63
2023/12/01 03:12:30;;;;;;;61.20;24.60;;;1.00;99.90;;;;;;5053336;28;20029;-63
2023/12/01 03:14:56;;;;;;;59.80;23.83;;;1.10;99.90;;;;;;5036807;28;20025;-63
2023/12/01 03:17:23;;;;;;;58.50;22.38;;;1.00;99.90;;;;;;5055173;28;20021;-63
2023/12/01 03:19:50;;;;;;;60.90;21.42;;;1.00;99.90;;;;;;5054855;28;20060;-63
2023/12/01 03:22:16;;;;;;;56.55;22.05;;;1.00;99.90;;;;;;5036375;28;20021;-63
2023/12/01 03:24:42;;;;;;;60.85;22.65;;;1.00;99.90;;;;;;5053826;28;20460;-63
2023/12/01 03:27:08;;;;;;;58.58;23.55;;;1.00;99.90;;;;;;5054388;28;20125;-63
2023/12/01 03:29:39;;;;;;;58.30;22.65;;;1.00;99.90;;;;;;5054114;28;20017;-63
2023/12/01 03:32:04;;;;;;;60.97;24.05;;;1.00;99.90;;;;;;5054066;28;20067;-63
2023/12/01 03:34:30;;;;;;;58.60;22.27;;;1.10;99.90;;;;;;5053986;28;20029;-63
2023/12/01 03:36:56;;;;;;;58.13;21.48;;;1.10;99.90;;;;;;5054752;28;20028;-63
2023/12/01 03:39:22;;;;;;;54.28;20.85;;;1.10;99.90;;;;;;5065649;28;20045;-63
2023/12/01 03:41:48;;;;;;;54.97;21.23;;;1.00;99.90;;;;;;5072367;28;20017;-62
2023/12/01 03:44:14;;;;;;;54.55;20.90;;;1.00;99.90;;;;;;5073903;28;20066;-63
2023/12/01 03:46:39;;;;;;;60.80;23.00;;;1.00;99.90;;;;;;5072618;28;20035;-63
2023/12/01 03:49:05;;;;;;;55.55;21.13;;;1.00;99.90;;;;;;5073837;28;20017;-63
2023/12/01 03:51:31;;;;;;;59.95;22.25;;;1.00;99.90;;;;;;5073800;28;20032;-63
2023/12/01 03:53:57;;;;;;;56.60;21.13;;;1.00;99.90;;;;;;5072554;28;20016;-63
2023/12/01 03:56:22;;;;;;;57.13;21.73;;;1.40;99.90;;;;;;5074143;28;20363;-63
2023/12/01 03:58:52;;;;;;;49.03;21.13;;;1.10;99.90;;;;;;5073501;28;20534;-63
2023/12/01 04:01:18;;;;;;;61.10;23.13;;;1.00;99.90;;;;;;5072476;28;20024;-63
2023/12/01 04:03:44;;;;;;;49.20;20.02;;;1.00;99.90;;;;;;5073892;28;20021;-63
2023/12/01 04:06:10;;;;;;;55.63;22.98;;;1.00;99.90;;;;;;5073518;28;20033;-63
2023/12/01 04:08:35;;;;;;;62.83;23.63;;;1.00;99.90;;;;;;5073751;28;20021;-63
2023/12/01 04:11:01;;;;;;;53.03;20.55;;;1.00;99.90;;;;;;5073712;28;20021;-63
2023/12/01 04:13:27;;;;;;;57.60;21.35;;;1.20;99.90;;;;;;5073606;28;20108;-63
2023/12/01 04:15:53;;;;;;;55.65;22.02;;;1.10;99.90;;;;;;5073612;28;20025;-63
2023/12/01 04:18:18;;;;;;;55.28;22.92;;;1.00;99.90;;;;;;5072271;28;20024;-63
2023/12/01 04:20:44;;;;;;;57.95;22.23;;;1.00;99.90;;;;;;5072286;28;20017;-62
2023/12/01 04:23:10;;;;;;;60.70;22.90;;;1.00;99.90;;;;;;5072301;28;20027;-63
2023/12/01 04:25:38;;;;;;;58.97;22.38;;;1.00;99.90;;;;;;5077108;28;20349;-63
2023/12/01 04:28:05;;;;;;;57.65;21.35;;;1.00;99.90;;;;;;5076164;28;20025;-63
2023/12/01 04:30:31;;;;;;;56.20;23.02;;;1.00;99.90;;;;;;5076169;28;20017;-62
2023/12/01 04:32:57;;;;;;;61.00;23.10;;;1.00;99.90;;;;;;5076080;28;20062;-63
2023/12/01 04:35:25;;;;;;;58.60;23.48;;;1.00;99.90;;;;;;5077423;28;20035;-63
2023/12/01 04:37:51;;;;;;;55.42;22.73;;;1.00;99.90;;;;;;5073209;28;20045;-63
2023/12/01 04:40:17;;;;;;;58.22;23.00;;;1.10;99.90;;;;;;5039805;28;20113;-63
2023/12/01 04:42:46;;;;;;;58.60;22.20;;;1.10;99.90;;;;;;5039655;28;20131;-63
2023/12/01 04:45:14;;;;;;;58.33;22.95;;;1.10;99.90;;;;;;5039540;28;20052;-63
2023/12/01 04:47:44;;;;;;;57.25;21.40;;;1.10;99.90;;;;;;5039227;28;20033;-63
2023/12/01 04:50:12;;;;;;;60.47;21.25;;;1.10;99.90;;;;;;5057262;28;20021;-63
2023/12/01 04:52:49;;;;;;;59.40;23.10;;;1.10;99.90;;;;;;5057012;28;20013;-63
2023/12/01 04:55:17;;;;;;;58.13;22.45;;;1.10;99.90;;;;;;5056943;28;20447;-63
2023/12/01 04:57:44;;;;;;;61.13;23.42;;;1.20;99.90;;;;;;5056868;28;20028;-63
2023/12/01 05:00:21;;;;;;;65.63;24.00;;;1.10;99.90;;;;;;5056824;28;20032;-63
2023/12/01 05:02:57;;;;;;;61.60;23.05;;;1.20;99.90;;;;;;5056494;28;20461;-63
2023/12/01 05:05:23;;;;;;;58.28;23.45;;;1.20;99.90;;;;;;5056700;28;20029;-63
2023/12/01 05:07:51;;;;;;;55.22;22.65;;;1.20;99.90;;;;;;5056597;28;20115;-63
2023/12/01 05:10:22;;;;;;;45.43;20.20;;;1.20;99.90;;;;;;5038730;28;20090;-63
2023/12/01 05:12:50;;;;;;;57.92;23.73;;;1.20;99.90;;;;;;5038784;28;20387;-63
2023/12/01 05:15:18;;;;;;;51.92;20.70;;;1.20;99.90;;;;;;5056594;28;20440;-62
2023/12/01 05:17:46;;;;;;;53.58;21.92;;;1.20;99.90;;;;;;5038659;28;20017;-62
2023/12/01 05:20:18;;;;;;;46.50;20.63;;;1.20;99.90;;;;;;5038618;28;20453;-62
2023/12/01 05:22:44;;;;;;;52.05;21.27;;;1.20;99.90;;;;;;5056462;28;20028;-62
2023/12/01 05:25:13;;;;;;;60.33;23.15;;;1.20;99.90;;;;;;5038427;28;20518;-62
2023/12/01 05:27:44;;;;;;;53.05;21.65;;;1.20;99.90;;;;;;5056435;28;20029;-62
2023/12/01 05:30:14;;;;;;;50.38;20.90;;;1.20;99.90;;;;;;5056115;28;20028;-64
2023/12/01 05:32:44;;;;;;;55.72;23.45;;;1.20;99.90;;;;;;5038375;28;20016;-63
2023/12/01 05:35:11;;;;;;;56.67;21.77;;;1.30;99.90;;;;;;5037768;28;20029;-63
2023/12/01 05:37:48;;;;;;;54.95;21.52;;;1.30;99.90;;;;;;5038056;28;20021;-63
2023/12/01 05:40:16;;;;;;;56.25;22.42;;;1.80;99.90;;;;;;5056261;28;20105;-63
2023/12/01 05:42:43;;;;;;;59.97;23.65;;;1.20;99.90;;;;;;5038035;28;20483;-62
2023/12/01 05:45:13;;;;;;;60.70;23.05;;;1.20;99.90;;;;;;5055768;28;20075;-62
2023/12/01 05:47:46;;;;;;;55.85;22.83;;;1.20;99.90;;;;;;5055747;28;20396;-62
2023/12/01 05:50:13;;;;;;;51.15;20.70;;;1.20;99.90;;;;;;5056244;28;20025;-62
2023/12/01 05:52:41;;;;;;;58.55;22.92;;;1.20;99.90;;;;;;5056003;28;20031;-62
2023/12/01 05:55:14;;;;;;;61.92;24.13;;;1.40;99.90;;;;;;5038047;28;20036;-62
2023/12/01 05:57:42;;;;;;;56.40;24.17;;;1.30;99.90;;;;;;5038048;28;20021;-63
2023/12/01 06:00:18;;;;;;;55.72;23.02;;;1.30;99.90;;;;;;5056034;28;20102;-63
2023/12/01 06:02:50;;;;;;;58.05;22.73;;;1.30;99.90;;;;;;5055795;28;20029;-62
2023/12/01 06:05:17;;;;;;;53.28;22.42;;;1.30;99.90;;;;;;5055668;28;20021;-63
2023/12/01 06:07:45;;;;;;;56.72;22.92;;;1.30;99.90;;;;;;5037882;28;20032;-63
2023/12/01 06:10:12;;;;;;;53.72;22.38;;;1.20;99.90;;;;;;5038301;28;20025;-63
2023/12/01 06:12:38;;;;;;;61.75;23.42;;;1.20;99.90;;;;;;5056501;28;20071;-63
2023/12/01 06:15:09;;;;;;;54.15;22.75;;;1.20;99.90;;;;;;5038768;28;20024;-63
2023/12/01 06:17:41;;;;;;;57.20;22.48;;;1.20;99.90;;;;;;5056549;28;20017;-63
2023/12/01 06:20:17;;;;;;;51.03;21.70;;;1.20;99.90;;;;;;5056231;28;20075;-62
2023/12/01 06:22:48;;;;;;;56.65;23.20;;;1.20;99.90;;;;;;5038005;28;20029;-63
2023/12/01 06:25:15;;;;;;;63.45;23.30;;;1.20;99.90;;;;;;5038702;28;20025;-63
2023/12/01 06:27:41;;;;;;;61.20;23.67;;;1.20;99.90;;;;;;5038544;28;20048;-62
2023/12/01 06:30:11;;;;;;;55.50;22.73;;;1.20;99.90;;;;;;5037628;28;20027;-63
2023/12/01 06:32:41;;;;;;;54.63;21.80;;;1.20;99.90;;;;;;5037364;28;20445;-64
2023/12/01 06:35:10;;;;;;;58.28;23.27;;;2.40;99.90;;;;;;5037217;28;20029;-62
2023/12/01 06:37:36;;;;;;;62.60;23.58;;;1.20;99.90;;;;;;5036957;28;20553;-63
2023/12/01 06:40:11;;;;;;;63.20;22.95;;;1.20;99.90;;;;;;5055257;28;20044;-63
2023/12/01 06:42:56;;;;;;;56.20;22.23;;;1.20;99.90;;;;;;5054928;28;20024;-63
2023/12/01 06:45:28;;;;;;;57.25;22.80;;;1.20;99.90;;;;;;5055019;28;20082;-64
2023/12/01 06:47:54;;;;;;;55.75;21.13;;;1.30;99.90;;;;;;5035858;28;20031;-63
2023/12/01 06:50:22;;;;;;;56.22;22.05;;;1.20;99.90;;;;;;5054738;28;20029;-62
2023/12/01 06:52:50;;;;;;;57.10;22.05;;;1.20;99.90;;;;;;5036622;28;20066;-62
2023/12/01 06:55:16;;;;;;;54.10;22.17;;;1.30;99.90;;;;;;5054666;28;20514;-63
2023/12/01 06:57:43;;;;;;;52.95;22.85;;;1.40;99.90;;;;;;5054567;28;20029;-62
2023/12/01 07:00:21;;;;;;;55.42;22.75;;;1.30;99.90;;;;;;5036704;28;20067;-62
2023/12/01 07:02:48;;;;;;;61.00;23.95;;;1.30;99.90;;;;;;5054663;28;20104;-63
2023/12/01 07:05:19;;;;;;;55.33;22.33;;;1.30;99.90;;;;;;5036507;28;20025;-63
2023/12/01 07:07:47;;;;;;;50.55;23.00;;;1.30;99.90;;;;;;5036302;28;20032;-63
2023/12/01 07:10:13;;;;;;;37.72;16.27;;;1.30;99.90;;;;;;5054430;28;20055;-63
2023/12/01 07:12:39;;;;;;;53.95;21.90;;;1.30;99.90;;;;;;5036446;28;20476;-63
2023/12/01 07:15:11;;;;;;;57.90;22.02;;;1.30;99.90;;;;;;5054113;28;20029;-63
2023/12/01 07:17:38;;;;;;;56.97;24.33;;;1.40;99.90;;;;;;5054362;28;20048;-63
2023/12/01 07:20:13;;;;;;;57.55;25.17;;;1.40;99.90;;;;;;5036304;28;20078;-63
2023/12/01 07:22:39;;;;;;;62.70;23.85;;;1.40;99.90;;;;;;5036503;28;20025;-63
2023/12/01 07:25:10;;;;;;;58.88;23.60;;;1.40;99.90;;;;;;5036205;28;20067;-63
2023/12/01 07:27:39;;;;;;;59.97;22.73;;;1.40;99.90;;;;;;5036159;28;20024;-63
2023/12/01 07:30:06;;;;;;;60.20;22.70;;;1.50;99.90;;;;;;5036189;28;20020;-63
2023/12/01 07:32:32;;;;;;;57.10;22.55;;;1.50;99.90;;;;;;5053835;28;20415;-63
2023/12/01 07:34:58;;;;;;;55.85;22.88;;;1.50;99.90;;;;;;5036394;28;20060;-63
2023/12/01 07:37:24;;;;;;;55.17;24.27;;;1.80;99.90;;;;;;5053947;28;20365;-63
2023/12/01 07:39:49;;;;;;;61.88;26.73;;;1.60;99.90;;;;;;5053987;28;20112;-63
2023/12/01 07:42:16;;;;;;;61.78;24.95;;;1.60;99.90;;;;;;5036227;28;20108;-63
2023/12/01 07:44:41;;;;;;;60.75;24.73;;;2.40;99.90;;;;;;5053564;28;20037;-63
2023/12/01 07:47:11;;;;;;;52.78;22.25;;;1.60;99.90;;;;;;5053690;28;20129;-63
2023/12/01 07:49:37;;;;;;;61.40;23.65;;;1.70;99.90;;;;;;5054146;28;20075;-63
2023/12/01 07:52:06;;;;;;;53.40;23.73;;;1.70;99.90;;;;;;5036170;28;20032;-63
2023/12/01 07:54:33;;;;;;;53.90;23.92;;;1.70;99.90;;;;;;5053758;28;20095;-62
2023/12/01 07:56:59;;;;;;;55.08;22.65;;;1.70;99.90;;;;;;5053458;28;20056;-63
2023/12/01 07:59:24;;;;;;;48.92;22.10;;;1.70;99.90;;;;;;5053429;28;20060;-63
2023/12/01 08:01:51;;;;;;;66.40;24.73;;;1.70;99.90;;;;;;5053224;28;20025;-63
2023/12/01 08:04:16;;;;;;;60.05;24.85;;;1.70;99.90;;;;;;5053840;28;20068;-63
2023/12/01 08:06:42;;;;;;;62.85;24.70;;;1.80;99.90;;;;;;5054871;28;20025;-63
2023/12/01 08:09:08;;;;;;;69.43;24.42;;;1.90;99.90;;;;;;5053646;28;20025;-63
2023/12/01 08:11:33;;;;;;;51.00;22.45;;;1.90;99.90;;;;;;5053347;28;20021;-63
2023/12/01 08:13:59;;;;;;;62.45;24.33;;;2.00;99.90;;;;;;5035727;28;20483;-62
2023/12/01 08:16:24;;;;;;;47.42;22.10;;;2.00;99.90;;;;;;5035730;28;20022;-63
2023/12/01 08:18:50;;;;;;;59.15;24.38;;;2.10;99.90;;;;;;5053587;28;20091;-63
2023/12/01 08:21:16;;;;;;;61.70;23.73;;;2.10;99.90;;;;;;5035623;28;20094;-64
2023/12/01 08:23:41;;;;;;;58.08;24.92;;;2.00;99.90;;;;;;5053173;28;20021;-63
2023/12/01 08:26:09;;;;;;;55.10;23.63;;;2.10;99.90;;;;;;5053537;28;20025;-63
2023/12/01 08:28:34;;;;;;;57.08;22.48;;;2.10;99.90;;;;;;5053464;28;20036;-63
2023/12/01 08:31:00;;;;;;;63.60;24.52;;;2.10;99.90;;;;;;5036058;28;20029;-63
2023/12/01 08:33:26;;;;;;;58.88;23.30;;;2.10;99.90;;;;;;5053696;28;20104;-62
2023/12/01 08:35:51;;;;;;;63.15;24.15;;;2.00;99.90;;;;;;5035662;28;20021;-63
2023/12/01 08:38:18;;;;;;;55.70;22.90;;;2.00;99.90;;;;;;5053053;28;20044;-63
2023/12/01 08:40:43;;;;;;;55.22;22.98;;;2.00;99.90;;;;;;5035376;28;20334;-63
2023/12/01 08:43:09;;;;;;;62.90;24.83;;;2.00;99.90;;;;;;5052929;28;20158;-64
2023/12/01 08:45:35;;;;;;;59.50;24.73;;;2.00;99.90;;;;;;5035210;28;20032;-63
2023/12/01 08:48:00;;;;;;;69.10;27.17;;;2.10;99.90;;;;;;5054011;28;20021;-63
2023/12/01 08:50:26;;;;;;;76.25;28.90;;;2.10;99.90;;;;;;5036287;28;20017;-63
2023/12/01 08:52:52;;;;;;;64.93;26.23;;;2.10;99.90;;;;;;5054317;28;20501;-64
2023/12/01 08:55:17;;;;;;;64.13;28.05;;;2.00;99.90;;;;;;5036880;28;20025;-63
2023/12/01 08:57:43;;;;;;;59.15;25.20;;;2.10;99.90;;;;;;5053403;28;20021;-63
2023/12/01 09:00:09;;;;;;;64.95;27.20;;;2.10;99.90;;;;;;5035312;28;20119;-63
2023/12/01 09:02:35;;;;;;;63.63;26.42;;;2.10;99.90;;;;;;5053440;28;20017;-63
2023/12/01 09:05:02;;;;;;;60.83;26.85;;;2.10;99.90;;;;;;5052758;28;20032;-63
2023/12/01 09:07:27;;;;;;;68.43;27.90;;;2.00;99.90;;;;;;5053099;28;20021;-63
2023/12/01 09:09:53;;;;;;;67.53;27.45;;;1.90;99.90;;;;;;5053061;28;20024;-63
2023/12/01 09:12:19;;;;;;;63.22;26.63;;;1.90;99.90;;;;;;5038444;28;20071;-63
2023/12/01 09:14:44;;;;;;;76.05;28.08;;;2.00;99.90;;;;;;5056646;28;20021;-63
2023/12/01 09:17:10;;;;;;;67.32;28.05;;;1.90;99.90;;;;;;5056600;28;20057;-64
2023/12/01 09:19:35;;;;;;;67.70;27.67;;;2.00;99.90;;;;;;5038607;28;20024;-64
2023/12/01 09:22:01;;;;;;;65.28;28.85;;;1.90;99.90;;;;;;5038547;28;20036;-64
2023/12/01 09:24:27;;;;;;;80.07;29.73;;;2.20;99.90;;;;;;5056345;28;20096;-63
2023/12/01 09:26:52;;;;;;;77.78;29.75;;;1.90;99.90;;;;;;5056359;28;20021;-63
2023/12/01 09:29:18;;;;;;;69.80;29.33;;;1.90;99.90;;;;;;5056223;28;20096;-63
2023/12/01 09:31:47;;;;;;;74.88;29.58;;;1.90;99.90;;;;;;5056475;28;20021;-63
2023/12/01 09:34:13;;;;;;;73.85;29.98;;;1.90;99.90;;;;;;5056335;28;20479;-63
2023/12/01 09:36:42;;;;;;;79.10;31.35;;;1.90;99.90;;;;;;5056107;28;20021;-63
2023/12/01 09:39:08;;;;;;;82.07;32.25;;;1.90;99.90;;;;;;5056738;28;20468;-63
2023/12/01 09:41:37;;;;;;;96.15;32.38;;;2.00;99.90;;;;;;5056038;28;20169;-63
2023/12/01 09:44:03;;;;;;;75.05;32.75;;;2.10;99.90;;;;;;5056066;28;20108;-64
2023/12/01 09:46:34;;;;;;;78.97;31.20;;;2.10;99.90;;;;;;5056894;28;20103;-64
2023/12/01 09:49:03;;;;;;;78.47;31.10;;;2.10;99.90;;;;;;5038519;28;20546;-63
2023/12/01 09:51:29;;;;;;;83.80;30.52;;;2.00;99.90;;;;;;5056088;28;20086;-63
2023/12/01 09:53:54;;;;;;;80.35;31.25;;;2.00;99.90;;;;;;5056161;28;20029;-63
2023/12/01 09:56:21;;;;;;;86.07;32.13;;;2.10;99.90;;;;;;5056077;28;20028;-64
2023/12/01 09:58:47;;;;;;;81.57;31.02;;;2.10;99.90;;;;;;5055753;28;20028;-64
2023/12/01 10:01:14;;;;;;;69.93;29.73;;;2.20;99.90;;;;;;5037495;28;20021;-63
2023/12/01 10:03:39;;;;;;;84.57;30.70;;;2.20;99.90;;;;;;5055376;28;20457;-63
2023/12/01 10:06:07;;;;;;;82.43;31.83;;;2.20;99.90;;;;;;5055597;28;20032;-64
2023/12/01 10:08:34;;;;;;;97.85;36.33;;;2.30;99.90;;;;;;5037641;28;20082;-63
2023/12/01 10:11:00;;;;;;;82.07;34.47;;;2.30;99.90;;;;;;5055616;28;20021;-63
2023/12/01 10:13:39;;;;;;;81.22;31.10;;;2.40;99.90;;;;;;5055743;28;20028;-63
2023/12/01 10:16:05;;;;;;;72.20;30.55;;;2.40;99.90;;;;;;5055427;28;20051;-63
2023/12/01 10:18:31;;;;;;;81.05;32.00;;;2.30;99.90;;;;;;5055111;28;20025;-63
2023/12/01 10:21:07;;;;;;;63.72;29.52;;;2.40;99.90;;;;;;5037429;28;20056;-64
2023/12/01 10:23:33;;;;;;;72.05;28.67;;;2.40;99.90;;;;;;5037498;28;20032;-63
2023/12/01 10:26:03;;;;;;;67.88;27.73;;;2.40;99.90;;;;;;5054770;28;20483;-63
2023/12/01 10:28:40;;;;;;;61.38;25.92;;;2.40;99.90;;;;;;5037572;28;20075;-63
2023/12/01 10:31:06;;;;;;;76.60;29.52;;;2.50;99.90;;;;;;5037339;28;20071;-63
2023/12/01 10:33:35;;;;;;;68.70;28.10;;;2.50;99.90;;;;;;5037011;28;20116;-64
2023/12/01 10:36:02;;;;;;;65.93;28.48;;;2.70;99.90;;;;;;5037497;28;20354;-63
2023/12/01 10:38:30;;;;;;;77.35;30.55;;;2.60;99.90;;;;;;5051072;28;20068;-64
2023/12/01 10:40:56;;;;;;;70.30;29.52;;;2.50;99.90;;;;;;5073655;28;20107;-64
2023/12/01 10:43:22;;;;;;;69.88;29.98;;;2.40;99.90;;;;;;5073741;28;20116;-63
2023/12/01 10:45:52;;;;;;;74.88;30.58;;;2.40;99.90;;;;;;5074678;28;20089;-63
2023/12/01 10:48:19;;;;;;;55.75;26.65;;;2.40;99.90;;;;;;5073433;28;20028;-63
2023/12/01 10:50:47;;;;;;;57.65;25.52;;;2.40;99.90;;;;;;5073465;28;20449;-63
2023/12/01 10:53:14;;;;;;;54.78;25.15;;;2.40;99.90;;;;;;5073065;28;20023;-63
2023/12/01 10:55:46;;;;;;;52.42;23.58;;;2.40;99.90;;;;;;5074686;28;20355;-63
2023/12/01 10:58:17;;;;;;;67.63;24.80;;;2.40;99.90;;;;;;5074548;28;20376;-63
2023/12/01 11:00:45;;;;;;;54.40;24.15;;;2.40;99.90;;;;;;5072999;28;20032;-64
2023/12/01 11:03:13;;;;;;;52.70;22.75;;;2.40;99.90;;;;;;5074682;28;20459;-63
2023/12/01 11:05:41;;;;;;;48.72;23.92;;;2.40;99.90;;;;;;5073096;28;20028;-63
2023/12/01 11:08:40;;;;;;;56.58;24.23;;;2.40;99.90;;;;;;5074740;28;20105;-63
2023/12/01 11:11:28;;;;;;;65.07;26.02;;;2.40;99.90;;;;;;5073297;28;20024;-63
2023/12/01 11:14:18;;;;;;;71.53;25.80;;;2.30;99.90;;;;;;5074014;28;20023;-63
2023/12/01 11:16:47;;;;;;;60.40;25.23;;;2.30;99.90;;;;;;5074403;28;20021;-64
2023/12/01 11:19:14;;;;;;;60.38;24.83;;;2.30;99.90;;;;;;5074217;28;20016;-64
2023/12/01 11:21:44;;;;;;;66.07;24.40;;;2.30;99.90;;;;;;5072879;28;20345;-64
2023/12/01 11:24:26;;;;;;;54.75;22.50;;;2.20;99.90;;;;;;5074404;28;20028;-64
2023/12/01 11:26:52;;;;;;;56.08;22.80;;;2.20;99.90;;;;;;5074115;28;20029;-63
2023/12/01 11:29:28;;;;;;;63.92;24.63;;;2.10;99.90;;;;;;5074164;28;20020;-64
2023/12/01 11:31:56;;;;;;;52.33;22.90;;;2.10;99.90;;;;;;5074149;28;20080;-64
2023/12/01 11:34:23;;;;;;;60.30;25.27;;;2.10;99.90;;;;;;5072622;28;20394;-64
2023/12/01 11:36:50;;;;;;;64.00;22.98;;;2.10;99.90;;;;;;5073163;28;20657;-64
2023/12/01 11:39:17;;;;;;;75.70;24.92;;;2.10;99.90;;;;;;5058508;28;20045;-64
2023/12/01 11:41:49;;;;;;;58.65;23.65;;;2.20;99.90;;;;;;5053829;28;20017;-63
2023/12/01 11:44:34;;;;;;;61.72;23.27;;;2.20;99.90;;;;;;5036393;28;20036;-64
2023/12/01 11:47:04;;;;;;;59.60;23.58;;;2.20;99.90;;;;;;5053881;28;20094;-63
2023/12/01 11:49:38;;;;;;;61.60;23.73;;;2.20;99.90;;;;;;5036168;28;20421;-63
2023/12/01 11:52:09;;;;;;;60.60;24.33;;;2.20;99.90;;;;;;5053754;28;20017;-63
2023/12/01 11:54:36;;;;;;;61.30;24.55;;;2.30;99.90;;;;;;5036323;28;20025;-63
2023/12/01 11:57:06;;;;;;;66.63;24.40;;;2.30;99.90;;;;;;5035499;28;20031;-63
2023/12/01 11:59:32;;;;;;;52.47;23.95;;;2.30;99.90;;;;;;5036317;28;20113;-63
2023/12/01 12:01:58;;;;;;;54.13;23.80;;;2.30;99.90;;;;;;5053622;28;20057;-63
2023/12/01 12:04:24;;;;;;;64.70;26.20;;;2.30;99.90;;;;;;5053622;28;20476;-63
2023/12/01 12:06:50;;;;;;;60.60;24.90;;;2.20;99.90;;;;;;5035685;28;20124;-63
2023/12/01 12:09:19;;;;;;;58.08;22.48;;;2.20;99.90;;;;;;5053599;28;20067;-63
2023/12/01 12:11:53;;;;;;;61.15;23.58;;;2.10;99.90;;;;;;5035722;28;20116;-63
2023/12/01 12:14:22;;;;;;;61.67;24.25;;;2.10;99.90;;;;;;5053232;28;20017;-63
2023/12/01 12:16:48;;;;;;;55.53;23.27;;;2.10;99.90;;;;;;5035430;28;20372;-63
2023/12/01 12:19:14;;;;;;;55.60;23.70;;;2.00;99.90;;;;;;5053131;28;20059;-63
2023/12/01 12:21:40;;;;;;;54.80;23.70;;;2.00;99.90;;;;;;5053602;28;20053;-63
2023/12/01 12:24:06;;;;;;;56.35;23.63;;;2.00;99.90;;;;;;5035855;28;20017;-63
2023/12/01 12:26:32;;;;;;;50.17;21.23;;;2.00;99.90;;;;;;5053371;28;20029;-63
2023/12/01 12:29:03;;;;;;;48.38;22.10;;;2.00;99.90;;;;;;5053357;28;20108;-63
2023/12/01 12:31:40;;;;;;;50.85;22.10;;;2.00;99.90;;;;;;5053316;28;20563;-63
2023/12/01 12:34:07;;;;;;;53.00;22.33;;;2.00;99.90;;;;;;5035555;28;20021;-63
2023/12/01 12:36:35;;;;;;;51.60;22.13;;;2.00;99.90;;;;;;5053373;28;20363;-63
2023/12/01 12:39:06;;;;;;;53.92;23.08;;;2.00;99.90;;;;;;5052873;28;20056;-63